sensor_id;sensor_type;location;lat;lon;timestamp;pressure;altitude;pressure_sealevel;temperature;humidity
62374;BME280;48409;49.030;1.820;2023-02-23T00:02:09;100588.50;;;9.20;66.18
62374;BME280;48409;49.030;1.820;2023-02-23T00:04:34;100586.84;;;9.18;66.16
62374;BME280;48409;49.030;1.820;2023-02-23T00:07:00;100585.16;;;9.17;66.20
62374;BME280;48409;49.030;1.820;2023-02-23T00:09:28;100586.97;;;9.14;66.24
62374;BME280;48409;49.030;1.820;2023-02-23T00:11:59;100594.09;;;9.12;66.26
62374;BME280;48409;49.030;1.820;2023-02-23T00:14:32;100588.94;;;9.09;66.26
62374;BME280;48409;49.030;1.820;2023-02-23T00:16:57;100581.19;;;9.06;66.10
62374;BME280;48409;49.030;1.820;2023-02-23T00:19:23;100587.38;;;9.05;66.28
62374;BME280;48409;49.030;1.820;2023-02-23T00:21:49;100584.78;;;9.04;66.29
62374;BME280;48409;49.030;1.820;2023-02-23T00:24:17;100589.34;;;9.00;66.16
62374;BME280;48409;49.030;1.820;2023-02-23T00:26:46;100592.00;;;8.98;66.29
62374;BME280;48409;49.030;1.820;2023-02-23T00:29:16;100593.88;;;8.96;66.22
62374;BME280;48409;49.030;1.820;2023-02-23T00:31:42;100588.72;;;8.93;66.20
62374;BME280;48409;49.030;1.820;2023-02-23T00:34:08;100589.56;;;8.94;66.33
62374;BME280;48409;49.030;1.820;2023-02-23T00:36:34;100585.28;;;8.91;66.24
62374;BME280;48409;49.030;1.820;2023-02-23T00:39:01;100587.13;;;8.89;66.26
62374;BME280;48409;49.030;1.820;2023-02-23T00:41:30;100584.56;;;8.87;66.23
62374;BME280;48409;49.030;1.820;2023-02-23T00:43:58;100588.13;;;8.86;66.34
62374;BME280;48409;49.030;1.820;2023-02-23T00:46:25;100581.16;;;8.85;66.19
62374;BME280;48409;49.030;1.820;2023-02-23T00:48:54;100576.03;;;8.82;66.19
62374;BME280;48409;49.030;1.820;2023-02-23T00:51:20;100579.59;;;8.81;66.33
62374;BME280;48409;49.030;1.820;2023-02-23T00:53:45;100586.66;;;8.79;66.01
62374;BME280;48409;49.030;1.820;2023-02-23T00:56:11;100580.69;;;8.75;66.06
62374;BME280;48409;49.030;1.820;2023-02-23T00:58:37;100580.72;;;8.74;66.05
62374;BME280;48409;49.030;1.820;2023-02-23T01:01:09;100583.47;;;8.71;66.23
62374;BME280;48409;49.030;1.820;2023-02-23T01:03:35;100579.19;;;8.68;66.10
62374;BME280;48409;49.030;1.820;2023-02-23T01:06:01;100581.06;;;8.66;66.10
62374;BME280;48409;49.030;1.820;2023-02-23T01:08:31;100576.78;;;8.64;66.10
62374;BME280;48409;49.030;1.820;2023-02-23T01:10:56;100572.41;;;8.62;66.08
62374;BME280;48409;49.030;1.820;2023-02-23T01:13:22;100571.63;;;8.60;66.10
62374;BME280;48409;49.030;1.820;2023-02-23T01:15:48;100578.69;;;8.58;66.18
62374;BME280;48409;49.030;1.820;2023-02-23T01:18:17;100580.56;;;8.56;66.16
62374;BME280;48409;49.030;1.820;2023-02-23T01:20:43;100584.09;;;8.55;66.12
62374;BME280;48409;49.030;1.820;2023-02-23T01:23:09;100580.66;;;8.53;66.07
62374;BME280;48409;49.030;1.820;2023-02-23T01:25:36;100587.72;;;8.51;66.03
62374;BME280;48409;49.030;1.820;2023-02-23T01:28:02;100586.03;;;8.50;66.11
62374;BME280;48409;49.030;1.820;2023-02-23T01:30:28;100584.28;;;8.49;66.17
62374;BME280;48409;49.030;1.820;2023-02-23T01:32:53;100583.44;;;8.48;66.07
62374;BME280;48409;49.030;1.820;2023-02-23T01:35:18;100583.56;;;8.45;66.03
62374;BME280;48409;49.030;1.820;2023-02-23T01:37:44;100583.63;;;8.44;66.11
62374;BME280;48409;49.030;1.820;2023-02-23T01:40:14;100581.91;;;8.43;66.30
62374;BME280;48409;49.030;1.820;2023-02-23T01:42:40;100592.47;;;8.41;66.08
62374;BME280;48409;49.030;1.820;2023-02-23T01:45:26;100589.91;;;8.40;66.15
62374;BME280;48409;49.030;1.820;2023-02-23T01:47:53;100576.00;;;8.38;66.19
62374;BME280;48409;49.030;1.820;2023-02-23T01:50:19;100593.56;;;8.35;66.13
62374;BME280;48409;49.030;1.820;2023-02-23T01:52:46;100596.22;;;8.34;66.03
62374;BME280;48409;49.030;1.820;2023-02-23T01:55:14;100598.94;;;8.32;65.99
62374;BME280;48409;49.030;1.820;2023-02-23T01:57:47;100596.38;;;8.31;66.08
62374;BME280;48409;49.030;1.820;2023-02-23T02:00:14;100595.56;;;8.29;66.09
62374;BME280;48409;49.030;1.820;2023-02-23T02:02:39;100589.53;;;8.27;66.03
62374;BME280;48409;49.030;1.820;2023-02-23T02:05:05;100596.59;;;8.25;66.01
62374;BME280;48409;49.030;1.820;2023-02-23T02:07:37;100592.31;;;8.22;66.09
62374;BME280;48409;49.030;1.820;2023-02-23T02:10:04;100595.00;;;8.20;66.12
62374;BME280;48409;49.030;1.820;2023-02-23T02:12:36;100587.25;;;8.17;65.99
62374;BME280;48409;49.030;1.820;2023-02-23T02:15:03;100590.00;;;8.14;66.20
62374;BME280;48409;49.030;1.820;2023-02-23T02:17:40;100590.03;;;8.13;66.18
62374;BME280;48409;49.030;1.820;2023-02-23T02:38:36;100573.34;;;7.91;66.20
62374;BME280;48409;49.030;1.820;2023-02-23T02:41:04;100573.38;;;7.90;66.21
62374;BME280;48409;49.030;1.820;2023-02-23T02:51:15;100569.28;;;7.82;66.04
62374;BME280;48409;49.030;1.820;2023-02-23T02:56:30;100571.25;;;7.76;66.26
62374;BME280;48409;49.030;1.820;2023-02-23T02:58:57;100575.66;;;7.75;66.11
62374;BME280;48409;49.030;1.820;2023-02-23T03:01:23;100576.69;;;7.71;66.14
62374;BME280;48409;49.030;1.820;2023-02-23T03:04:21;100571.53;;;7.68;66.04
62374;BME280;48409;49.030;1.820;2023-02-23T03:07:17;100578.63;;;7.66;66.06
62374;BME280;48409;49.030;1.820;2023-02-23T03:19:06;100579.06;;;7.53;66.24
62374;BME280;48409;49.030;1.820;2023-02-23T03:21:57;100580.03;;;7.51;66.18
62374;BME280;48409;49.030;1.820;2023-02-23T03:24:48;100583.53;;;7.50;66.20
62374;BME280;48409;49.030;1.820;2023-02-23T03:27:43;100581.88;;;7.47;66.09
62374;BME280;48409;49.030;1.820;2023-02-23T03:33:15;100581.09;;;7.45;66.00
62374;BME280;48409;49.030;1.820;2023-02-23T03:36:01;100582.88;;;7.43;66.21
62374;BME280;48409;49.030;1.820;2023-02-23T03:38:50;100577.66;;;7.43;66.39
62374;BME280;48409;49.030;1.820;2023-02-23T03:41:37;100575.09;;;7.41;66.04
62374;BME280;48409;49.030;1.820;2023-02-23T03:44:26;100574.25;;;7.41;66.03
62374;BME280;48409;49.030;1.820;2023-02-23T03:47:11;100579.47;;;7.41;66.20
62374;BME280;48409;49.030;1.820;2023-02-23T03:49:57;100589.97;;;7.41;66.13
62374;BME280;48409;49.030;1.820;2023-02-23T03:52:45;100576.91;;;7.39;66.07
62374;BME280;48409;49.030;1.820;2023-02-23T03:55:32;100579.56;;;7.38;66.24
62374;BME280;48409;49.030;1.820;2023-02-23T03:58:17;100582.19;;;7.38;66.12
62374;BME280;48409;49.030;1.820;2023-02-23T04:01:06;100583.09;;;7.37;66.08
62374;BME280;48409;49.030;1.820;2023-02-23T04:03:52;100587.47;;;7.36;66.18
62374;BME280;48409;49.030;1.820;2023-02-23T04:06:39;100585.78;;;7.35;66.18
62374;BME280;48409;49.030;1.820;2023-02-23T04:09:24;100580.53;;;7.35;66.12
62374;BME280;48409;49.030;1.820;2023-02-23T04:12:17;100583.22;;;7.34;66.25
62374;BME280;48409;49.030;1.820;2023-02-23T04:17:28;100589.38;;;7.32;65.97
62374;BME280;48409;49.030;1.820;2023-02-23T04:19:54;100590.22;;;7.33;66.24
62374;BME280;48409;49.030;1.820;2023-02-23T04:22:23;100591.97;;;7.32;66.22
62374;BME280;48409;49.030;1.820;2023-02-23T04:24:48;100599.84;;;7.32;66.16
62374;BME280;48409;49.030;1.820;2023-02-23T04:27:14;100593.69;;;7.34;66.05
62374;BME280;48409;49.030;1.820;2023-02-23T04:29:40;100598.94;;;7.34;66.32
62374;BME280;48409;49.030;1.820;2023-02-23T04:32:08;100603.28;;;7.35;66.19
62374;BME280;48409;49.030;1.820;2023-02-23T04:34:36;100605.91;;;7.35;66.19
62374;BME280;48409;49.030;1.820;2023-02-23T04:37:01;100615.47;;;7.36;66.19
62374;BME280;48409;49.030;1.820;2023-02-23T04:39:27;100610.19;;;7.37;66.24
62374;BME280;48409;49.030;1.820;2023-02-23T04:41:54;100611.03;;;7.38;66.13
62374;BME280;48409;49.030;1.820;2023-02-23T04:44:22;100620.63;;;7.39;66.39
62374;BME280;48409;49.030;1.820;2023-02-23T04:46:55;100615.38;;;7.39;66.46
62374;BME280;48409;49.030;1.820;2023-02-23T04:49:21;100616.16;;;7.41;66.37
62374;BME280;48409;49.030;1.820;2023-02-23T04:51:46;100624.81;;;7.43;66.47
62374;BME280;48409;49.030;1.820;2023-02-23T04:54:12;100619.56;;;7.43;66.39
62374;BME280;48409;49.030;1.820;2023-02-23T04:56:37;100631.78;;;7.44;66.25
62374;BME280;48409;49.030;1.820;2023-02-23T04:59:03;100627.38;;;7.44;66.53
62374;BME280;48409;49.030;1.820;2023-02-23T05:01:28;100633.50;;;7.45;66.42
62374;BME280;48409;49.030;1.820;2023-02-23T05:03:56;100631.66;;;7.47;66.33
62374;BME280;48409;49.030;1.820;2023-02-23T05:06:21;100630.84;;;7.47;66.58
62374;BME280;48409;49.030;1.820;2023-02-23T05:08:47;100633.41;;;7.48;66.42
62374;BME280;48409;49.030;1.820;2023-02-23T05:11:15;100645.59;;;7.49;66.31
62374;BME280;48409;49.030;1.820;2023-02-23T05:13:40;100641.19;;;7.50;66.30
62374;BME280;48409;49.030;1.820;2023-02-23T05:16:05;100641.97;;;7.53;66.31
62374;BME280;48409;49.030;1.820;2023-02-23T05:18:31;100635.00;;;7.52;66.52
62374;BME280;48409;49.030;1.820;2023-02-23T05:21:03;100636.72;;;7.53;66.28
62374;BME280;48409;49.030;1.820;2023-02-23T05:23:29;100641.97;;;7.53;66.35
62374;BME280;48409;49.030;1.820;2023-02-23T05:25:58;100638.44;;;7.54;66.50
62374;BME280;48409;49.030;1.820;2023-02-23T05:28:23;100641.00;;;7.56;66.49
62374;BME280;48409;49.030;1.820;2023-02-23T05:30:48;100635.75;;;7.56;66.47
62374;BME280;48409;49.030;1.820;2023-02-23T05:33:14;100634.84;;;7.57;66.31
62374;BME280;48409;49.030;1.820;2023-02-23T05:35:40;100633.88;;;7.60;66.47
62374;BME280;48409;49.030;1.820;2023-02-23T05:38:05;100631.25;;;7.60;66.54
62374;BME280;48409;49.030;1.820;2023-02-23T05:40:30;100641.69;;;7.61;66.62
62374;BME280;48409;49.030;1.820;2023-02-23T05:42:59;100639.94;;;7.62;66.41
62374;BME280;48409;49.030;1.820;2023-02-23T05:45:24;100640.72;;;7.64;66.20
62374;BME280;48409;49.030;1.820;2023-02-23T05:47:50;100630.25;;;7.64;66.34
62374;BME280;48409;49.030;1.820;2023-02-23T05:50:16;100627.63;;;7.64;66.39
62374;BME280;48409;49.030;1.820;2023-02-23T05:52:44;100634.56;;;7.65;66.47
62374;BME280;48409;49.030;1.820;2023-02-23T05:55:09;100634.53;;;7.66;66.43
62374;BME280;48409;49.030;1.820;2023-02-23T05:57:39;100626.69;;;7.65;66.51
62374;BME280;48409;49.030;1.820;2023-02-23T06:00:10;100625.81;;;7.66;66.48
62374;BME280;48409;49.030;1.820;2023-02-23T06:02:37;100631.94;;;7.65;66.30
62374;BME280;48409;49.030;1.820;2023-02-23T06:05:03;100624.94;;;7.65;66.47
62374;BME280;48409;49.030;1.820;2023-02-23T06:07:30;100620.56;;;7.66;66.38
62374;BME280;48409;49.030;1.820;2023-02-23T06:09:55;100634.53;;;7.66;66.37
62374;BME280;48409;49.030;1.820;2023-02-23T06:12:20;100632.75;;;7.67;66.69
62374;BME280;48409;49.030;1.820;2023-02-23T06:14:48;100632.81;;;7.65;66.35
62374;BME280;48409;49.030;1.820;2023-02-23T06:17:15;100631.06;;;7.66;66.51
62374;BME280;48409;49.030;1.820;2023-02-23T06:19:41;100632.75;;;7.67;66.34
62374;BME280;48409;49.030;1.820;2023-02-23T06:22:06;100634.56;;;7.65;66.39
62374;BME280;48409;49.030;1.820;2023-02-23T06:24:31;100634.47;;;7.68;66.63
62374;BME280;48409;49.030;1.820;2023-02-23T06:26:58;100631.84;;;7.68;66.45
62374;BME280;48409;49.030;1.820;2023-02-23T06:29:23;100638.00;;;7.67;66.40
62374;BME280;48409;49.030;1.820;2023-02-23T06:31:48;100632.75;;;7.67;66.51
62374;BME280;48409;49.030;1.820;2023-02-23T06:34:16;100638.84;;;7.67;66.62
62374;BME280;48409;49.030;1.820;2023-02-23T06:36:41;100649.28;;;7.69;66.41
62374;BME280;48409;49.030;1.820;2023-02-23T06:39:08;100651.06;;;7.68;66.40
62374;BME280;48409;49.030;1.820;2023-02-23T06:41:34;100654.53;;;7.69;66.34
62374;BME280;48409;49.030;1.820;2023-02-23T06:43:59;100658.88;;;7.70;66.47
62374;BME280;48409;49.030;1.820;2023-02-23T06:46:25;100657.16;;;7.69;66.48
62374;BME280;48409;49.030;1.820;2023-02-23T06:48:53;100658.88;;;7.70;66.58
62374;BME280;48409;49.030;1.820;2023-02-23T06:51:19;100657.97;;;7.71;66.37
62374;BME280;48409;49.030;1.820;2023-02-23T06:53:44;100661.50;;;7.70;66.62
62374;BME280;48409;49.030;1.820;2023-02-23T06:56:09;100664.97;;;7.70;66.40
62374;BME280;48409;49.030;1.820;2023-02-23T06:58:36;100666.75;;;7.70;66.53
62374;BME280;48409;49.030;1.820;2023-02-23T07:01:02;100664.91;;;7.72;66.56
62374;BME280;48409;49.030;1.820;2023-02-23T07:03:27;100671.88;;;7.73;66.64
62374;BME280;48409;49.030;1.820;2023-02-23T07:05:52;100669.25;;;7.73;66.51
62374;BME280;48409;49.030;1.820;2023-02-23T07:08:18;100675.34;;;7.74;66.45
62374;BME280;48409;49.030;1.820;2023-02-23T07:10:44;100676.19;;;7.74;66.51
62374;BME280;48409;49.030;1.820;2023-02-23T07:13:09;100680.56;;;7.75;66.52
62374;BME280;48409;49.030;1.820;2023-02-23T07:15:37;100681.34;;;7.77;66.42
62374;BME280;48409;49.030;1.820;2023-02-23T07:18:03;100672.69;;;7.75;66.63
62374;BME280;48409;49.030;1.820;2023-02-23T07:20:28;100687.47;;;7.78;66.46
62374;BME280;48409;49.030;1.820;2023-02-23T07:22:55;100687.50;;;7.76;66.63
62374;BME280;48409;49.030;1.820;2023-02-23T07:25:20;100690.13;;;7.76;66.42
62374;BME280;48409;49.030;1.820;2023-02-23T07:27:45;100696.16;;;7.78;66.52
62374;BME280;48409;49.030;1.820;2023-02-23T07:30:11;100697.06;;;7.77;66.43
62374;BME280;48409;49.030;1.820;2023-02-23T07:32:36;100695.38;;;7.76;66.63
62374;BME280;48409;49.030;1.820;2023-02-23T07:35:04;100686.59;;;7.77;66.69
62374;BME280;48409;49.030;1.820;2023-02-23T07:37:30;100697.06;;;7.77;66.41
62374;BME280;48409;49.030;1.820;2023-02-23T07:39:55;100710.19;;;7.77;66.49
62374;BME280;48409;49.030;1.820;2023-02-23T07:42:20;100714.53;;;7.78;66.53
62374;BME280;48409;49.030;1.820;2023-02-23T07:44:46;100709.28;;;7.78;66.47
62374;BME280;48409;49.030;1.820;2023-02-23T07:47:11;100709.28;;;7.78;66.47
62374;BME280;48409;49.030;1.820;2023-02-23T07:49:36;100711.91;;;7.78;66.52
62374;BME280;48409;49.030;1.820;2023-02-23T07:52:02;100720.63;;;7.79;66.52
62374;BME280;48409;49.030;1.820;2023-02-23T07:54:27;100723.22;;;7.80;66.59
62374;BME280;48409;49.030;1.820;2023-02-23T07:56:52;100720.59;;;7.80;66.46
62374;BME280;48409;49.030;1.820;2023-02-23T07:59:18;100723.22;;;7.80;66.66
62374;BME280;48409;49.030;1.820;2023-02-23T08:01:43;100720.53;;;7.82;66.54
62374;BME280;48409;49.030;1.820;2023-02-23T08:04:09;100723.94;;;7.84;66.44
62374;BME280;48409;49.030;1.820;2023-02-23T08:06:34;100726.63;;;7.82;66.52
62374;BME280;48409;49.030;1.820;2023-02-23T08:09:03;100722.19;;;7.84;66.46
62374;BME280;48409;49.030;1.820;2023-02-23T08:11:28;100724.81;;;7.84;66.53
62374;BME280;48409;49.030;1.820;2023-02-23T08:13:54;100715.16;;;7.85;66.71
62374;BME280;48409;49.030;1.820;2023-02-23T08:16:24;100718.66;;;7.86;66.46
62374;BME280;48409;49.030;1.820;2023-02-23T08:18:49;100719.47;;;7.88;66.46
62374;BME280;48409;49.030;1.820;2023-02-23T08:21:17;100715.94;;;7.89;66.72
62374;BME280;48409;49.030;1.820;2023-02-23T08:23:43;100719.47;;;7.88;66.56
62374;BME280;48409;49.030;1.820;2023-02-23T08:26:08;100717.63;;;7.90;66.59
62374;BME280;48409;49.030;1.820;2023-02-23T08:28:34;100724.53;;;7.92;66.82
62374;BME280;48409;49.030;1.820;2023-02-23T08:30:59;100729.84;;;7.91;66.51
62374;BME280;48409;49.030;1.820;2023-02-23T08:33:24;100731.53;;;7.92;66.61
62374;BME280;48409;49.030;1.820;2023-02-23T08:35:50;100735.00;;;7.94;66.68
62374;BME280;48409;49.030;1.820;2023-02-23T08:38:19;100741.94;;;7.95;66.71
62374;BME280;48409;49.030;1.820;2023-02-23T08:40:45;100742.75;;;7.97;66.78
62374;BME280;48409;49.030;1.820;2023-02-23T08:43:10;100745.38;;;7.97;66.78
62374;BME280;48409;49.030;1.820;2023-02-23T08:45:36;100743.56;;;7.99;66.58
62374;BME280;48409;49.030;1.820;2023-02-23T08:48:01;100738.31;;;7.99;66.87
62374;BME280;48409;49.030;1.820;2023-02-23T08:50:27;100740.78;;;8.04;66.80
62374;BME280;48409;49.030;1.820;2023-02-23T08:52:52;100745.16;;;8.03;66.63
62374;BME280;48409;49.030;1.820;2023-02-23T08:55:18;100736.38;;;8.04;66.67
62374;BME280;48409;49.030;1.820;2023-02-23T08:57:44;100738.94;;;8.06;66.70
62374;BME280;48409;49.030;1.820;2023-02-23T09:00:10;100738.09;;;8.05;66.63
62374;BME280;48409;49.030;1.820;2023-02-23T09:02:41;100742.38;;;8.08;66.67
62374;BME280;48409;49.030;1.820;2023-02-23T09:05:06;100743.22;;;8.08;66.79
62374;BME280;48409;49.030;1.820;2023-02-23T09:07:32;100742.31;;;8.09;66.65
62374;BME280;48409;49.030;1.820;2023-02-23T09:09:57;100744.88;;;8.11;66.71
62374;BME280;48409;49.030;1.820;2023-02-23T09:12:22;100753.56;;;8.13;66.88
62374;BME280;48409;49.030;1.820;2023-02-23T09:14:48;100751.78;;;8.14;66.71
62374;BME280;48409;49.030;1.820;2023-02-23T09:17:14;100755.22;;;8.16;66.73
62374;BME280;48409;49.030;1.820;2023-02-23T09:19:40;100756.94;;;8.17;66.73
62374;BME280;48409;49.030;1.820;2023-02-23T09:22:05;100764.75;;;8.18;66.83
62374;BME280;48409;49.030;1.820;2023-02-23T09:24:33;100765.63;;;8.19;66.76
62374;BME280;48409;49.030;1.820;2023-02-23T09:26:58;100760.25;;;8.22;66.77
62374;BME280;48409;49.030;1.820;2023-02-23T09:29:24;100765.50;;;8.22;66.71
62374;BME280;48409;49.030;1.820;2023-02-23T09:31:51;100756.75;;;8.23;66.78
62374;BME280;48409;49.030;1.820;2023-02-23T09:34:17;100759.25;;;8.26;66.79
62374;BME280;48409;49.030;1.820;2023-02-23T09:36:43;100754.81;;;8.28;66.83
62374;BME280;48409;49.030;1.820;2023-02-23T09:39:08;100752.97;;;8.30;66.80
62374;BME280;48409;49.030;1.820;2023-02-23T09:44:08;100750.25;;;8.33;66.92
62374;BME280;48409;49.030;1.820;2023-02-23T09:49:10;100745.69;;;8.39;66.86
62374;BME280;48409;49.030;1.820;2023-02-23T09:51:38;100742.97;;;8.42;67.03
62374;BME280;48409;49.030;1.820;2023-02-23T09:54:04;100748.06;;;8.45;66.94
62374;BME280;48409;49.030;1.820;2023-02-23T09:56:35;100752.38;;;8.47;66.93
62374;BME280;48409;49.030;1.820;2023-02-23T09:59:01;100752.31;;;8.49;66.98
62374;BME280;48409;49.030;1.820;2023-02-23T10:06:25;100753.84;;;8.56;67.06
62374;BME280;48409;49.030;1.820;2023-02-23T10:11:26;100755.34;;;8.64;67.30
62374;BME280;48409;49.030;1.820;2023-02-23T10:14:02;100755.19;;;8.67;67.11
62374;BME280;48409;49.030;1.820;2023-02-23T10:16:42;100755.09;;;8.70;67.14
62374;BME280;48409;49.030;1.820;2023-02-23T10:19:24;100750.66;;;8.72;67.15
62374;BME280;48409;49.030;1.820;2023-02-23T10:21:55;100753.16;;;8.75;67.09
62374;BME280;48409;49.030;1.820;2023-02-23T10:26:55;100747.72;;;8.80;67.37
62374;BME280;48409;49.030;1.820;2023-02-23T10:29:31;100752.78;;;8.84;67.28
62374;BME280;48409;49.030;1.820;2023-02-23T10:31:59;100745.69;;;8.88;67.23
62374;BME280;48409;49.030;1.820;2023-02-23T10:34:26;100754.28;;;8.92;67.32
62374;BME280;48409;49.030;1.820;2023-02-23T10:37:00;100759.44;;;8.95;67.38
62374;BME280;48409;49.030;1.820;2023-02-23T10:39:26;100766.28;;;8.99;67.42
62374;BME280;48409;49.030;1.820;2023-02-23T10:41:51;100763.50;;;9.02;67.48
62374;BME280;48409;49.030;1.820;2023-02-23T10:44:19;100761.69;;;9.04;67.41
62374;BME280;48409;49.030;1.820;2023-02-23T10:46:45;100762.44;;;9.08;67.37
62374;BME280;48409;49.030;1.820;2023-02-23T10:49:18;100767.53;;;9.12;67.53
62374;BME280;48409;49.030;1.820;2023-02-23T10:51:48;100767.38;;;9.16;67.44
62374;BME280;48409;49.030;1.820;2023-02-23T10:54:55;100766.41;;;9.18;67.39
62374;BME280;48409;49.030;1.820;2023-02-23T10:57:02;100761.03;;;9.21;67.38
62374;BME280;48409;49.030;1.820;2023-02-23T10:59:28;100760.06;;;9.24;67.42
62374;BME280;48409;49.030;1.820;2023-02-23T11:01:54;100757.38;;;9.25;67.43
62374;BME280;48409;49.030;1.820;2023-02-23T11:04:23;100759.84;;;9.30;67.45
62374;BME280;48409;49.030;1.820;2023-02-23T11:06:49;100764.94;;;9.33;67.53
62374;BME280;48409;49.030;1.820;2023-02-23T11:09:24;100755.19;;;9.37;67.51
62374;BME280;48409;49.030;1.820;2023-02-23T11:11:59;100756.78;;;9.41;67.68
62374;BME280;48409;49.030;1.820;2023-02-23T11:14:27;100764.47;;;9.46;67.59
62374;BME280;48409;49.030;1.820;2023-02-23T11:16:54;100766.06;;;9.50;67.66
62374;BME280;48409;49.030;1.820;2023-02-23T11:19:20;100757.13;;;9.54;67.53
62374;BME280;48409;49.030;1.820;2023-02-23T11:21:49;100752.59;;;9.58;67.54
62374;BME280;48409;49.030;1.820;2023-02-23T11:26:44;100754.91;;;9.65;67.73
62374;BME280;48409;49.030;1.820;2023-02-23T11:29:28;100754.78;;;9.69;67.57
62374;BME280;48409;49.030;1.820;2023-02-23T11:31:55;100756.41;;;9.71;67.50
62374;BME280;48409;49.030;1.820;2023-02-23T11:34:31;100750.97;;;9.76;67.43
62374;BME280;48409;49.030;1.820;2023-02-23T11:37:05;100750.88;;;9.79;67.39
62374;BME280;48409;49.030;1.820;2023-02-23T11:39:31;100750.72;;;9.82;67.54
62374;BME280;48409;49.030;1.820;2023-02-23T11:42:30;100747.03;;;9.86;67.45
62374;BME280;48409;49.030;1.820;2023-02-23T11:47:37;100740.53;;;9.95;67.69
62374;BME280;48409;49.030;1.820;2023-02-23T11:50:03;100738.56;;;10.00;67.68
62374;BME280;48409;49.030;1.820;2023-02-23T11:52:29;100738.38;;;10.05;67.82
62374;BME280;48409;49.030;1.820;2023-02-23T11:54:58;100735.47;;;10.11;67.79
62374;BME280;48409;49.030;1.820;2023-02-23T11:57:33;100740.44;;;10.17;67.90
62374;BME280;48409;49.030;1.820;2023-02-23T12:00:11;100731.50;;;10.22;67.83
62374;BME280;48409;49.030;1.820;2023-02-23T12:05:30;100729.38;;;10.30;67.71
62374;BME280;48409;49.030;1.820;2023-02-23T12:08:05;100738.84;;;10.34;67.75
62374;BME280;48409;49.030;1.820;2023-02-23T12:10:43;100729.03;;;10.38;67.70
62374;BME280;48409;49.030;1.820;2023-02-23T12:13:30;100717.44;;;10.42;67.71
62374;BME280;48409;49.030;1.820;2023-02-23T12:16:00;100716.41;;;10.46;67.69
62374;BME280;48409;49.030;1.820;2023-02-23T12:20:54;100717.94;;;10.52;67.70
62374;BME280;48409;49.030;1.820;2023-02-23T12:23:23;100714.22;;;10.56;67.44
62374;BME280;48409;49.030;1.820;2023-02-23T12:25:52;100719.38;;;10.59;67.65
62374;BME280;48409;49.030;1.820;2023-02-23T12:30:57;100726.03;;;10.66;67.62
62374;BME280;48409;49.030;1.820;2023-02-23T12:41:10;100722.06;;;10.77;67.48
62374;BME280;48409;49.030;1.820;2023-02-23T12:43:41;100714.94;;;10.79;67.39
62374;BME280;48409;49.030;1.820;2023-02-23T12:48:48;100720.91;;;10.82;67.34
62374;BME280;48409;49.030;1.820;2023-02-23T12:53:54;100718.06;;;10.87;67.22
62374;BME280;48409;49.030;1.820;2023-02-23T12:59:25;100711.81;;;10.90;67.16
62374;BME280;48409;49.030;1.820;2023-02-23T13:01:56;100705.69;;;10.89;67.02
62374;BME280;48409;49.030;1.820;2023-02-23T13:12:44;100711.53;;;10.96;66.92
62374;BME280;48409;49.030;1.820;2023-02-23T13:28:00;100699.06;;;11.00;66.94
62374;BME280;48409;49.030;1.820;2023-02-23T13:30:27;100688.38;;;11.03;66.74
62374;BME280;48409;49.030;1.820;2023-02-23T13:32:56;100687.44;;;11.04;66.82
62374;BME280;48409;49.030;1.820;2023-02-23T13:35:22;100690.84;;;11.06;66.92
62374;BME280;48409;49.030;1.820;2023-02-23T13:37:52;100683.72;;;11.08;66.73
62374;BME280;48409;49.030;1.820;2023-02-23T13:45:47;100686.84;;;11.16;66.87
62374;BME280;48409;49.030;1.820;2023-02-23T13:50:58;100688.47;;;11.19;66.88
62374;BME280;48409;49.030;1.820;2023-02-23T13:55:57;100691.81;;;11.22;66.76
62374;BME280;48409;49.030;1.820;2023-02-23T13:58:25;100693.50;;;11.23;66.91
62374;BME280;48409;49.030;1.820;2023-02-23T14:00:53;100692.50;;;11.26;66.82
62374;BME280;48409;49.030;1.820;2023-02-23T14:03:21;100686.41;;;11.26;66.81
62374;BME280;48409;49.030;1.820;2023-02-23T14:05:48;100690.66;;;11.28;66.76
62374;BME280;48409;49.030;1.820;2023-02-23T14:08:21;100688.84;;;11.29;66.74
62374;BME280;48409;49.030;1.820;2023-02-23T14:10:47;100695.00;;;11.29;66.79
62374;BME280;48409;49.030;1.820;2023-02-23T14:38:50;100682.91;;;11.43;66.72
62374;BME280;48409;49.030;1.820;2023-02-23T14:43:59;100677.41;;;11.47;66.71
62374;BME280;48409;49.030;1.820;2023-02-23T14:46:31;100680.81;;;11.49;66.67
62374;BME280;48409;49.030;1.820;2023-02-23T14:51:35;100681.63;;;11.52;66.59
62374;BME280;48409;49.030;1.820;2023-02-23T14:54:19;100683.31;;;11.53;66.59
62374;BME280;48409;49.030;1.820;2023-02-23T14:56:47;100684.06;;;11.55;66.64
62374;BME280;48409;49.030;1.820;2023-02-23T14:59:19;100680.53;;;11.56;66.50
62374;BME280;48409;49.030;1.820;2023-02-23T15:01:45;100687.44;;;11.58;66.63
62374;BME280;48409;49.030;1.820;2023-02-23T15:04:12;100683.00;;;11.59;66.56
62374;BME280;48409;49.030;1.820;2023-02-23T15:06:38;100679.41;;;11.60;66.57
62374;BME280;48409;49.030;1.820;2023-02-23T15:09:05;100685.56;;;11.60;66.40
62374;BME280;48409;49.030;1.820;2023-02-23T15:11:31;100694.34;;;11.61;66.38
62374;BME280;48409;49.030;1.820;2023-02-23T15:13:56;100691.69;;;11.61;66.49
62374;BME280;48409;49.030;1.820;2023-02-23T15:16:25;100689.06;;;11.61;66.47
62374;BME280;48409;49.030;1.820;2023-02-23T15:18:58;100696.97;;;11.61;66.37
62374;BME280;48409;49.030;1.820;2023-02-23T15:21:24;100697.81;;;11.61;66.39
62374;BME280;48409;49.030;1.820;2023-02-23T15:23:50;100695.25;;;11.60;66.40
62374;BME280;48409;49.030;1.820;2023-02-23T15:28:51;100703.09;;;11.61;66.26
62374;BME280;48409;49.030;1.820;2023-02-23T15:31:16;100707.53;;;11.61;66.19
62374;BME280;48409;49.030;1.820;2023-02-23T15:33:43;100712.81;;;11.61;66.25
62374;BME280;48409;49.030;1.820;2023-02-23T15:36:12;100708.44;;;11.60;66.14
62374;BME280;48409;49.030;1.820;2023-02-23T15:38:44;100709.38;;;11.59;66.06
62374;BME280;48409;49.030;1.820;2023-02-23T15:41:30;100706.81;;;11.57;66.11